Time;durP1;ratioP1;P1;durP2;ratioP2;P2;SDS_P1;SDS_P2;PMS_P1;PMS_P2;Temp;Humidity;BMP_temperature;BMP_pressure;BME280_temperature;BME280_humidity;BME280_pressure;Samples;Min_cycle;Max_cycle;Signal;HPM_P1;HPM_P2
2021/10/12 00:01:02;;;;;;;52.72;35.20;;;;;;;11.23;100.00;100473.94;5008858;28;20030;-63
2021/10/12 00:03:27;;;;;;;50.97;34.95;;;;;;;11.20;100.00;100480.44;4990899;28;20038;-62
2021/10/12 00:05:53;;;;;;;51.15;34.80;;;;;;;11.19;100.00;100477.88;4991005;28;20029;-63
2021/10/12 00:08:19;;;;;;;53.47;36.30;;;;;;;11.20;100.00;100475.06;5003552;28;20036;-63
2021/10/12 00:10:44;;;;;;;54.75;35.55;;;;;;;11.20;100.00;100475.06;4990762;28;20018;-64
2021/10/12 00:13:10;;;;;;;50.92;34.50;;;;;;;11.16;100.00;100470.09;4991009;28;20022;-63
2021/10/12 00:15:35;;;;;;;53.67;36.13;;;;;;;11.19;100.00;100484.06;4990522;28;20090;-64
2021/10/12 00:18:01;;;;;;;51.67;35.60;;;;;;;11.19;100.00;100477.88;4990630;28;20030;-63
2021/10/12 00:20:26;;;;;;;47.75;33.42;;;;;;;11.19;100.00;100477.88;4989105;28;20034;-62
2021/10/12 00:22:52;;;;;;;54.08;35.15;;;;;;;11.25;100.00;100482.69;4989180;28;20030;-64
2021/10/12 00:25:17;;;;;;;48.58;33.78;;;;;;;11.23;100.00;100471.25;4990480;28;20030;-64
2021/10/12 00:27:43;;;;;;;52.10;35.15;;;;;;;11.22;100.00;100469.53;4988995;28;20042;-63
2021/10/12 00:30:09;;;;;;;58.45;37.45;;;;;;;11.13;100.00;100452.41;4990810;28;20113;-64
2021/10/12 00:32:34;;;;;;;52.92;35.10;;;;;;;11.11;100.00;100445.47;4990321;28;20053;-62
2021/10/12 00:35:00;;;;;;;51.22;35.47;;;;;;;11.19;100.00;100459.91;4990718;28;20376;-62
2021/10/12 00:37:25;;;;;;;51.00;34.67;;;;;;;11.13;100.00;100448.88;4990195;28;20033;-63
2021/10/12 00:39:51;;;;;;;49.28;33.97;;;;;;;11.16;100.00;100454.81;4990202;28;20034;-62
2021/10/12 00:42:17;;;;;;;51.58;36.33;;;;;;;11.14;100.00;100459.47;4989948;28;20037;-63
2021/10/12 00:44:44;;;;;;;55.80;35.78;;;;;;;11.08;100.00;100443.06;4990323;28;20022;-64
2021/10/12 00:47:09;;;;;;;52.88;36.25;;;;;;;11.13;100.00;100451.56;4990310;28;20455;-63
2021/10/12 00:49:35;;;;;;;46.17;34.92;;;;;;;11.07;100.00;100433.31;4988679;28;20118;-63
2021/10/12 00:52:00;;;;;;;54.33;34.92;;;;;;;11.12;100.00;100439.09;4990012;28;20496;-63
2021/10/12 00:54:26;;;;;;;53.17;34.58;;;;;;;11.06;100.00;100437.00;4989816;28;20109;-64
2021/10/12 00:56:51;;;;;;;51.47;33.88;;;;;;;11.08;100.00;100440.38;4989737;28;20026;-63
2021/10/12 00:59:16;;;;;;;50.80;34.42;;;;;;;11.04;100.00;100433.56;4989929;28;20540;-64
2021/10/12 01:01:42;;;;;;;49.50;34.85;;;;;;;11.05;100.00;100433.44;4989931;28;20093;-64
2021/10/12 01:04:08;;;;;;;52.05;34.75;;;;;;;10.98;100.00;100426.06;5008370;28;20468;-64
2021/10/12 01:06:34;;;;;;;52.10;33.50;;;;;;;11.02;100.00;100428.34;5009202;28;20037;-63
2021/10/12 01:09:00;;;;;;;48.90;32.55;;;;;;;11.04;100.00;100431.75;5009416;28;20036;-63
2021/10/12 01:11:26;;;;;;;48.58;34.05;;;;;;;11.05;100.00;100436.13;5009028;28;20026;-63
2021/10/12 01:13:53;;;;;;;52.05;35.05;;;;;;;11.03;100.00;100426.53;5008972;28;20113;-64
2021/10/12 01:16:18;;;;;;;47.85;33.08;;;;;;;11.00;100.00;100414.19;5009282;28;20476;-62
2021/10/12 01:19:00;;;;;;;49.72;34.67;;;;;;;10.99;100.00;100419.69;5024471;28;20026;-63
2021/10/12 01:21:27;;;;;;;51.72;33.65;;;;;;;10.91;100.00;100401.63;5009133;28;20033;-63
2021/10/12 01:23:53;;;;;;;51.42;33.55;;;;;;;10.96;100.00;100417.28;5009213;28;20030;-63
2021/10/12 01:26:19;;;;;;;49.78;34.60;;;;;;;10.89;100.00;100400.03;5008860;28;20057;-62
2021/10/12 01:28:44;;;;;;;53.60;36.28;;;;;;;10.93;100.00;100399.63;5007850;28;20065;-63
2021/10/12 01:31:17;;;;;;;50.97;34.35;;;;;;;10.90;100.00;100391.00;5008936;28;20028;-63
2021/10/12 01:33:42;;;;;;;48.72;34.40;;;;;;;10.90;100.00;100397.22;5008943;28;20033;-62
2021/10/12 01:36:08;;;;;;;50.33;34.35;;;;;;;10.91;100.00;100406.97;5008964;28;20498;-62
2021/10/12 01:38:34;;;;;;;52.92;35.17;;;;;;;10.89;100.00;100400.88;5008740;28;20108;-63
2021/10/12 01:40:59;;;;;;;52.90;35.28;;;;;;;10.86;100.00;100403.84;5008782;28;20531;-63
2021/10/12 01:43:24;;;;;;;51.55;36.40;;;;;;;10.83;100.00;100400.56;5005873;28;20044;-62
2021/10/12 01:45:50;;;;;;;52.92;35.75;;;;;;;10.81;100.00;100395.31;4989225;28;20030;-62
2021/10/12 01:48:15;;;;;;;55.55;35.45;;;;;;;10.79;100.00;100396.44;4993065;28;20081;-62
2021/10/12 01:50:41;;;;;;;49.40;34.42;;;;;;;10.75;100.00;100393.22;4988875;28;20058;-63
2021/10/12 01:53:06;;;;;;;50.85;34.85;;;;;;;10.66;100.00;100375.22;4988882;28;20061;-63
2021/10/12 01:55:32;;;;;;;56.05;35.30;;;;;;;10.71;100.00;100394.44;4988984;28;20058;-63
2021/10/12 01:57:57;;;;;;;51.38;35.42;;;;;;;10.62;100.00;100375.63;4989194;28;20068;-63
2021/10/12 02:00:23;;;;;;;45.75;32.33;;;;;;;10.55;100.00;100375.28;4987212;28;20022;-62
2021/10/12 02:02:48;;;;;;;53.20;34.45;;;;;;;10.70;100.00;100399.94;4989204;28;20361;-63
2021/10/12 02:05:14;;;;;;;45.75;32.70;;;;;;;10.68;100.00;100385.81;4987732;28;20038;-62
2021/10/12 02:07:39;;;;;;;50.55;34.83;;;;;;;10.58;100.00;100380.41;4988482;28;20145;-64
2021/10/12 02:10:05;;;;;;;49.30;34.92;;;;;;;10.49;100.00;100365.13;4988948;28;20027;-63
2021/10/12 02:12:31;;;;;;;48.90;34.90;;;;;;;10.54;100.00;100378.09;4988982;28;20031;-63
2021/10/12 02:14:57;;;;;;;55.30;36.75;;;;;;;10.51;100.00;100379.22;4988683;28;20118;-61
2021/10/12 02:17:22;;;;;;;49.75;34.33;;;;;;;10.50;100.00;100382.03;5001849;28;20025;-63
2021/10/12 02:19:48;;;;;;;49.78;34.92;;;;;;;10.44;100.00;100380.75;5008916;28;20026;-64
2021/10/12 02:22:13;;;;;;;47.90;32.95;;;;;;;10.47;100.00;100382.31;5008139;28;20079;-64
2021/10/12 02:24:38;;;;;;;47.13;32.88;;;;;;;10.43;100.00;100375.50;5007634;28;20167;-63
2021/10/12 02:27:04;;;;;;;50.50;35.72;;;;;;;10.41;100.00;100380.16;4995193;28;20074;-63
2021/10/12 02:29:29;;;;;;;47.28;34.17;;;;;;;10.30;100.00;100364.16;4988394;28;20033;-63
2021/10/12 02:31:55;;;;;;;48.28;34.03;;;;;;;10.38;100.00;100380.44;4988785;28;20026;-62
2021/10/12 02:34:20;;;;;;;50.92;33.83;;;;;;;10.36;100.00;100388.63;4988409;28;20038;-63
2021/10/12 02:36:46;;;;;;;53.83;35.13;;;;;;;10.34;100.00;100387.03;4988433;28;20137;-63
2021/10/12 02:39:11;;;;;;;49.78;33.35;;;;;;;10.22;100.00;100362.13;4988418;28;20026;-64
2021/10/12 02:41:36;;;;;;;55.85;36.03;;;;;;;10.25;100.00;100374.44;4988253;28;20113;-64
2021/10/12 02:44:02;;;;;;;48.75;34.90;;;;;;;10.21;100.00;100367.59;4988416;28;20034;-63
2021/10/12 02:46:28;;;;;;;47.05;34.38;;;;;;;10.21;100.00;100367.59;4988374;28;20026;-64
2021/10/12 02:48:54;;;;;;;46.90;34.13;;;;;;;10.17;100.00;100364.38;5008476;28;20025;-62
2021/10/12 02:51:19;;;;;;;55.85;36.08;;;;;;;10.18;100.00;100366.06;5007758;28;20022;-62
2021/10/12 02:53:45;;;;;;;52.90;36.22;;;;;;;10.15;100.00;100363.63;5005045;28;20037;-62
2021/10/12 02:56:10;;;;;;;48.58;33.22;;;;;;;10.11;100.00;100364.88;4988475;28;20026;-62
2021/10/12 02:58:37;;;;;;;49.20;33.85;;;;;;;10.04;100.00;100341.38;4987998;28;20030;-62
2021/10/12 03:01:02;;;;;;;53.45;34.53;;;;;;;10.13;100.00;100362.91;4988251;28;20057;-63
2021/10/12 03:03:28;;;;;;;52.00;34.70;;;;;;;10.07;100.00;100358.09;4988100;28;20073;-63
2021/10/12 03:05:53;;;;;;;53.65;34.65;;;;;;;10.10;100.00;100365.88;4995804;28;20057;-63
2021/10/12 03:08:19;;;;;;;47.85;33.15;;;;;;;10.09;100.00;100366.81;4990999;28;20040;-63
2021/10/12 03:10:44;;;;;;;57.13;35.58;;;;;;;10.09;100.00;100366.00;4988297;28;20023;-62
2021/10/12 03:13:10;;;;;;;53.08;35.55;;;;;;;10.05;100.00;100362.69;4988138;28;20357;-63
2021/10/12 03:15:36;;;;;;;44.88;32.22;;;;;;;9.88;100.00;100344.50;4988089;28;20042;-63
2021/10/12 03:18:01;;;;;;;49.05;34.78;;;;;;;9.98;100.00;100366.88;4988189;28;20026;-63
2021/10/12 03:20:27;;;;;;;51.63;35.10;;;;;;;9.84;100.00;100339.53;4988625;28;20041;-64
2021/10/12 03:22:52;;;;;;;50.50;34.58;;;;;;;9.99;100.00;100365.88;5007596;28;20029;-62
2021/10/12 03:25:18;;;;;;;51.50;34.85;;;;;;;9.99;100.00;100368.56;5008237;28;20025;-64
2021/10/12 03:27:43;;;;;;;53.80;34.75;;;;;;;9.97;100.00;100373.22;5007267;28;20377;-62
2021/10/12 03:30:09;;;;;;;53.95;36.22;;;;;;;9.98;100.00;100380.25;5007311;28;20029;-63
2021/10/12 03:32:35;;;;;;;56.63;36.78;;;;;;;9.95;100.00;100382.34;5007794;28;20038;-62
2021/10/12 03:35:00;;;;;;;59.88;38.78;;;;;;;9.97;100.00;100378.56;5007598;28;20030;-62
2021/10/12 03:37:26;;;;;;;53.70;35.45;;;;;;;9.91;100.00;100378.22;5010514;28;20042;-63
2021/10/12 03:39:51;;;;;;;53.88;35.33;;;;;;;9.90;100.00;100380.03;5001653;28;20034;-62
2021/10/12 03:42:17;;;;;;;56.50;36.92;;;;;;;9.87;100.00;100385.66;4991734;28;20026;-62
2021/10/12 03:44:42;;;;;;;47.08;34.75;;;;;;;9.84;100.00;100382.41;4991071;28;20038;-64
2021/10/12 03:47:08;;;;;;;52.92;36.20;;;;;;;9.77;100.00;100382.06;4991185;28;20026;-63
2021/10/12 03:49:33;;;;;;;52.55;35.22;;;;;;;9.82;100.00;100384.34;4991139;28;20124;-61
2021/10/12 03:51:59;;;;;;;57.25;36.65;;;;;;;9.77;100.00;100382.06;4991024;28;20030;-62
2021/10/12 03:54:25;;;;;;;56.08;38.17;;;;;;;9.78;100.00;100382.91;4990983;28;20037;-64
2021/10/12 03:56:50;;;;;;;55.53;36.75;;;;;;;9.73;100.00;100377.94;4990954;28;20030;-62
2021/10/12 03:59:15;;;;;;;57.30;38.55;;;;;;;9.73;100.00;100379.75;4999021;28;20033;-64
2021/10/12 04:01:41;;;;;;;59.28;36.83;;;;;;;9.72;100.00;100384.28;4990594;28;20113;-62
2021/10/12 04:04:06;;;;;;;59.55;37.33;;;;;;;9.71;100.00;100379.91;4990831;28;20030;-63
2021/10/12 04:06:32;;;;;;;56.03;36.92;;;;;;;9.67;100.00;100370.41;4990960;28;20487;-64
2021/10/12 04:08:57;;;;;;;54.80;37.20;;;;;;;9.71;100.00;100377.22;4990525;28;20062;-62
2021/10/12 04:11:23;;;;;;;52.83;36.08;;;;;;;9.73;100.00;100377.06;4992796;28;20026;-63
2021/10/12 04:13:49;;;;;;;53.40;35.88;;;;;;;9.69;100.00;100357.75;4990157;28;20113;-64
2021/10/12 04:16:14;;;;;;;58.08;36.65;;;;;;;9.73;100.00;100367.22;4990576;28;20029;-64
2021/10/12 04:18:40;;;;;;;47.92;34.55;;;;;;;9.72;100.00;100360.19;4989640;28;20117;-62
2021/10/12 04:21:06;;;;;;;54.90;36.45;;;;;;;9.73;100.00;100358.31;4989302;28;20496;-61
2021/10/12 04:23:31;;;;;;;55.08;35.85;;;;;;;9.75;100.00;100367.97;4989773;28;20058;-63
2021/10/12 04:25:57;;;;;;;51.28;34.97;;;;;;;9.72;100.00;100362.84;4989772;28;20030;-62
2021/10/12 04:28:23;;;;;;;53.38;35.33;;;;;;;9.77;100.00;100376.69;4990202;28;20413;-63
2021/10/12 04:30:48;;;;;;;51.53;35.05;;;;;;;9.79;100.00;100368.53;4982962;28;20112;-62
2021/10/12 04:33:15;;;;;;;51.53;34.47;;;;;;;9.73;100.00;100367.22;4989822;28;20156;-62
2021/10/12 04:35:42;;;;;;;55.63;35.45;;;;;;;9.66;100.00;100371.41;4989530;28;20058;-62
2021/10/12 04:38:07;;;;;;;55.33;35.22;;;;;;;9.65;100.00;100361.66;4989341;28;20033;-64
2021/10/12 04:40:33;;;;;;;53.92;35.72;;;;;;;9.63;100.00;100358.25;4989832;28;20034;-63
2021/10/12 04:43:01;;;;;;;54.40;34.25;;;;;;;9.63;100.00;100355.56;4990183;28;20140;-63
2021/10/12 04:45:27;;;;;;;48.10;32.17;;;;;;;9.63;100.00;100357.41;4989947;28;20042;-62
2021/10/12 04:47:53;;;;;;;55.08;35.05;;;;;;;9.63;100.00;100357.41;4993726;28;20112;-63
2021/10/12 04:50:19;;;;;;;55.20;34.35;;;;;;;9.61;100.00;100356.69;5009580;28;20480;-63
2021/10/12 04:52:45;;;;;;;46.60;33.45;;;;;;;9.55;100.00;100349.16;5007014;28;20057;-63
2021/10/12 04:55:11;;;;;;;47.00;33.33;;;;;;;9.56;100.00;100361.56;4990026;28;20030;-64
2021/10/12 04:57:37;;;;;;;47.05;31.65;;;;;;;9.54;100.00;100369.72;4989903;28;20070;-62
2021/10/12 05:00:05;;;;;;;49.60;34.95;;;;;;;9.49;100.00;100366.59;4989948;28;20551;-61
2021/10/12 05:02:30;;;;;;;51.03;34.42;;;;;;;9.46;100.00;100363.31;4989854;28;20425;-63
2021/10/12 05:04:55;;;;;;;70.55;45.00;;;;;;;9.45;100.00;100366.97;4987358;28;20037;-64
2021/10/12 05:07:21;;;;;;;69.82;43.55;;;;;;;9.43;100.00;100367.09;4990023;28;20038;-62
2021/10/12 05:09:46;;;;;;;56.00;37.50;;;;;;;9.41;100.00;100363.69;4989677;28;20030;-62
2021/10/12 05:12:12;;;;;;;52.90;35.28;;;;;;;9.34;100.00;100354.47;4990127;28;20034;-62
2021/10/12 05:14:37;;;;;;;52.20;32.90;;;;;;;9.37;100.00;100358.69;4988264;28;20132;-63
2021/10/12 05:17:05;;;;;;;45.50;32.08;;;;;;;9.41;100.00;100370.88;4989325;28;20939;-62
2021/10/12 05:19:32;;;;;;;50.35;33.25;;;;;;;9.33;100.00;100358.13;4989116;28;20085;-63
2021/10/12 05:21:58;;;;;;;48.65;32.65;;;;;;;9.35;100.00;100366.84;4989099;28;20037;-63
2021/10/12 05:24:24;;;;;;;51.53;34.17;;;;;;;9.28;100.00;100354.97;4988998;28;20033;-61
2021/10/12 05:26:49;;;;;;;50.78;33.35;;;;;;;9.33;100.00;100376.84;4989457;28;20046;-62
2021/10/12 05:29:15;;;;;;;55.28;35.83;;;;;;;9.31;100.00;100378.78;4989515;28;20022;-64
2021/10/12 05:31:41;;;;;;;55.75;38.03;;;;;;;9.24;100.00;100369.56;4988052;28;20117;-62
2021/10/12 05:34:07;;;;;;;52.45;36.70;;;;;;;9.26;100.00;100368.47;4989251;28;20435;-62
2021/10/12 05:36:32;;;;;;;53.85;36.05;;;;;;;9.31;100.00;100375.28;4989402;28;20107;-62
2021/10/12 05:38:58;;;;;;;53.05;32.92;;;;;;;9.32;100.00;100370.66;4989452;28;20162;-63
2021/10/12 05:41:23;;;;;;;50.35;32.50;;;;;;;9.32;100.00;100371.63;4989476;28;20085;-62
2021/10/12 05:43:49;;;;;;;47.03;31.58;;;;;;;9.32;100.00;100373.31;4989358;28;20045;-63
2021/10/12 05:46:14;;;;;;;49.10;31.95;;;;;;;9.31;100.00;100378.78;4988990;28;20030;-63
2021/10/12 05:48:40;;;;;;;43.70;31.13;;;;;;;9.31;100.00;100365.41;4989132;28;20044;-63
2021/10/12 05:51:08;;;;;;;41.15;28.38;;;;;;;9.26;100.00;100373.81;4988722;28;20033;-62
2021/10/12 05:56:16;;;;;;;45.17;30.13;;;;;;;9.14;100.00;100365.94;4988019;28;20373;-63
2021/10/12 05:58:43;;;;;;;52.50;31.55;;;;;;;9.13;100.00;100382.97;4987923;28;20057;-62
2021/10/12 06:01:09;;;;;;;43.63;29.33;;;;;;;9.11;100.00;100388.47;4988584;28;20124;-63
2021/10/12 06:03:35;;;;;;;42.42;28.73;;;;;;;9.14;100.00;100395.38;4987019;28;20121;-62
2021/10/12 06:06:01;;;;;;;42.13;29.42;;;;;;;9.13;100.00;100391.84;4988716;28;20105;-63
2021/10/12 06:08:30;;;;;;;38.97;29.05;;;;;;;9.15;100.00;100389.91;4988682;28;20026;-63
2021/10/12 06:10:56;;;;;;;44.53;28.63;;;;;;;9.19;100.00;100396.69;4988935;28;20435;-61
2021/10/12 06:13:23;;;;;;;42.17;28.60;;;;;;;9.14;100.00;100393.56;4988846;28;20105;-63
2021/10/12 06:15:49;;;;;;;47.92;27.77;;;;;;;9.16;100.00;100388.91;4988284;28;20038;-63
2021/10/12 06:18:15;;;;;;;40.13;26.80;;;;;;;9.17;100.00;100390.66;4988647;28;20117;-63
2021/10/12 06:20:40;;;;;;;38.83;27.17;;;;;;;9.16;100.00;100385.41;4988235;28;20076;-61
2021/10/12 06:23:06;;;;;;;49.22;27.55;;;;;;;9.27;100.00;100394.28;4988702;28;20034;-62
2021/10/12 06:25:32;;;;;;;38.38;26.65;;;;;;;9.25;100.00;100384.66;4988304;28;20097;-64
2021/10/12 06:27:57;;;;;;;44.40;29.25;;;;;;;9.28;100.00;100379.03;4988241;28;20043;-62
2021/10/12 06:30:23;;;;;;;51.28;30.77;;;;;;;9.27;99.92;100382.72;4988500;28;20030;-63
2021/10/12 06:32:49;;;;;;;43.22;28.83;;;;;;;9.37;100.00;100390.81;4988291;28;20052;-63
2021/10/12 06:35:14;;;;;;;48.60;30.65;;;;;;;9.34;100.00;100391.94;4988778;28;20797;-63
2021/10/12 06:37:40;;;;;;;40.53;28.38;;;;;;;9.39;99.90;100391.56;4988242;28;20030;-62
2021/10/12 06:40:05;;;;;;;42.60;28.75;;;;;;;9.46;99.90;100395.44;4988663;28;20027;-62
2021/10/12 06:42:31;;;;;;;42.30;27.58;;;;;;;9.54;99.67;100393.00;4988103;28;20416;-62
2021/10/12 06:44:56;;;;;;;41.90;27.77;;;;;;;9.62;97.76;100387.84;4988192;28;20045;-63
2021/10/12 06:47:22;;;;;;;41.70;27.17;;;;;;;9.66;97.40;100397.31;4988449;28;20072;-63
2021/10/12 06:49:47;;;;;;;42.72;27.50;;;;;;;9.71;97.89;100392.44;4988423;28;20037;-63
2021/10/12 06:52:13;;;;;;;41.72;27.00;;;;;;;9.75;98.31;100385.84;4988156;28;20027;-63
2021/10/12 06:54:39;;;;;;;47.42;28.83;;;;;;;10.01;95.16;100401.44;4988463;28;20053;-63
2021/10/12 06:57:11;;;;;;;43.70;27.35;;;;;;;10.03;95.33;100404.00;4988391;28;20022;-61
2021/10/12 06:59:36;;;;;;;49.17;28.58;;;;;;;10.09;96.64;100401.66;4987803;28;20057;-62
2021/10/12 07:02:02;;;;;;;43.55;27.35;;;;;;;10.14;96.62;100383.38;4988127;28;20465;-64
2021/10/12 07:04:27;;;;;;;41.65;25.38;;;;;;;10.24;93.80;100381.63;4984678;28;20472;-62
2021/10/12 07:06:53;;;;;;;38.97;24.77;;;;;;;10.50;89.77;100396.31;4985742;28;20030;-63
2021/10/12 07:09:18;;;;;;;34.28;24.40;;;;;;;10.77;88.07;100396.59;4988581;28;20041;-64
2021/10/12 07:11:44;;;;;;;36.55;24.70;;;;;;;10.88;88.37;100392.97;5008373;28;20476;-62
2021/10/12 07:14:11;;;;;;;37.33;24.15;;;;;;;11.03;88.75;100397.81;5011239;28;20031;-61
2021/10/12 07:16:38;;;;;;;35.28;23.63;;;;;;;11.22;89.60;100397.91;4992692;28;20041;-63
2021/10/12 07:19:04;;;;;;;32.83;21.67;;;;;;;11.54;87.84;100393.16;4994849;28;20017;-63
2021/10/12 07:21:29;;;;;;;31.85;22.13;;;;;;;11.89;83.15;100391.81;5010989;28;20049;-62
2021/10/12 07:23:55;;;;;;;33.25;22.02;;;;;;;12.60;75.59;100402.06;5011507;28;20038;-63
2021/10/12 07:26:20;;;;;;;33.03;21.75;;;;;;;13.07;74.44;100406.47;5011010;28;20034;-63
2021/10/12 07:28:45;;;;;;;32.58;22.77;;;;;;;13.59;72.13;100395.00;5010648;28;20428;-63
2021/10/12 07:31:11;;;;;;;32.05;22.15;;;;;;;14.45;64.54;100395.13;5011259;28;20034;-62
2021/10/12 07:33:37;;;;;;;29.20;19.77;;;;;;;14.96;61.92;100400.53;5011275;28;20112;-62
2021/10/12 07:36:04;;;;;;;28.17;20.75;;;;;;;15.05;60.90;100385.22;5011144;28;20320;-62
2021/10/12 07:38:29;;;;;;;32.97;21.02;;;;;;;15.24;60.50;100395.78;4994575;28;20137;-62
2021/10/12 07:40:56;;;;;;;29.02;19.92;;;;;;;15.26;59.63;100388.34;4991952;28;20034;-62
2021/10/12 07:43:22;;;;;;;32.10;21.15;;;;;;;15.39;59.45;100397.75;4990004;28;20444;-62
2021/10/12 07:45:49;;;;;;;31.65;21.80;;;;;;;15.56;59.40;100391.38;4996857;28;20045;-63
2021/10/12 07:48:16;;;;;;;33.63;21.45;;;;;;;15.87;59.83;100397.84;5010644;28;20053;-63
2021/10/12 07:50:42;;;;;;;34.10;21.52;;;;;;;15.99;58.07;100384.84;5010635;28;20033;-62
2021/10/12 07:53:08;;;;;;;29.92;20.52;;;;;;;16.23;57.48;100384.03;5009513;28;20033;-63
2021/10/12 07:58:05;;;;;;;25.65;18.77;;;;;;;17.00;53.53;100362.59;5010764;28;20123;-62
2021/10/12 08:00:31;;;;;;;23.08;18.30;;;;;;;16.90;53.17;100359.25;5010198;28;20058;-63
2021/10/12 08:03:00;;;;;;;28.42;18.70;;;;;;;16.59;53.46;100332.06;5010845;28;20480;-63
2021/10/12 08:05:27;;;;;;;25.45;18.48;;;;;;;16.52;53.87;100366.28;5010789;28;20101;-63
2021/10/12 08:07:53;;;;;;;29.95;19.55;;;;;;;16.27;54.38;100363.72;5010642;28;20025;-63
2021/10/12 08:10:20;;;;;;;25.45;19.00;;;;;;;16.06;54.45;100374.22;5010427;28;20036;-61
2021/10/12 08:12:47;;;;;;;26.73;18.33;;;;;;;15.81;55.81;100368.75;5008779;28;20100;-62
2021/10/12 08:15:13;;;;;;;26.80;19.02;;;;;;;15.56;56.18;100366.19;4990720;28;20030;-62
2021/10/12 08:17:39;;;;;;;31.58;20.15;;;;;;;15.27;56.36;100358.47;4990760;28;20146;-63
2021/10/12 08:20:06;;;;;;;28.73;20.20;;;;;;;14.98;56.80;100362.56;5000713;28;20423;-63
2021/10/12 08:22:32;;;;;;;27.17;19.67;;;;;;;14.68;57.41;100353.13;5009806;28;20542;-63
2021/10/12 08:24:57;;;;;;;31.50;21.92;;;;;;;14.66;58.61;100362.38;5010291;28;20042;-63
2021/10/12 08:27:23;;;;;;;31.80;20.23;;;;;;;14.40;60.22;100367.78;5009824;28;20397;-63
2021/10/12 08:29:48;;;;;;;30.25;20.63;;;;;;;14.27;59.95;100359.25;5009888;28;20148;-64
2021/10/12 08:32:14;;;;;;;31.30;20.13;;;;;;;14.12;60.42;100350.00;5010202;28;20084;-63
2021/10/12 08:34:40;;;;;;;30.45;20.35;;;;;;;14.11;60.67;100359.09;5009923;28;20064;-64
2021/10/12 08:37:06;;;;;;;35.17;22.10;;;;;;;14.01;61.48;100361.03;5010074;28;20037;-62
2021/10/12 08:39:32;;;;;;;29.13;20.17;;;;;;;13.94;62.45;100357.25;5010107;28;20400;-63
2021/10/12 08:42:07;;;;;;;28.00;20.63;;;;;;;13.95;60.80;100360.78;5003311;28;20034;-62
2021/10/12 08:44:46;;;;;;;34.25;20.70;;;;;;;13.93;61.28;100354.72;4990373;28;20037;-63
2021/10/12 08:47:13;;;;;;;29.98;19.85;;;;;;;13.94;61.39;100349.19;4990206;28;20026;-63
2021/10/12 08:49:39;;;;;;;31.38;20.60;;;;;;;14.07;61.27;100354.16;4990197;28;20495;-63
2021/10/12 08:52:05;;;;;;;30.75;21.08;;;;;;;14.07;61.41;100341.53;5005059;28;20157;-63
2021/10/12 08:54:30;;;;;;;29.10;20.10;;;;;;;14.31;60.13;100347.13;4990316;28;20041;-63
2021/10/12 08:56:57;;;;;;;33.45;20.38;;;;;;;14.55;59.45;100343.75;5009394;28;20030;-63
2021/10/12 08:59:23;;;;;;;28.15;18.95;;;;;;;15.25;58.20;100346.13;5009847;28;20852;-64
2021/10/12 09:01:57;;;;;;;27.63;18.20;;;;;;;17.03;53.31;100343.28;5009521;28;20223;-63
2021/10/12 09:04:23;;;;;;;24.25;16.77;;;;;;;18.95;48.49;100327.38;5009370;28;20026;-64
2021/10/12 09:06:54;;;;;;;25.73;18.00;;;;;;;20.81;43.30;100314.28;5006968;28;20236;-63
2021/10/12 09:09:33;;;;;;;24.85;17.70;;;;;;;22.58;39.66;100307.47;5009580;28;20442;-63
2021/10/12 09:11:58;;;;;;;24.48;18.10;;;;;;;24.12;36.87;100298.84;5009761;28;20033;-63
2021/10/12 09:14:24;;;;;;;24.10;17.23;;;;;;;25.39;34.20;100301.81;5009242;28;20468;-63
2021/10/12 09:16:49;;;;;;;21.80;16.25;;;;;;;26.40;32.70;100286.97;5009073;28;20045;-63
2021/10/12 09:19:16;;;;;;;20.50;15.60;;;;;;;27.34;31.31;100273.78;5009454;28;20137;-64
2021/10/12 09:21:47;;;;;;;15.57;13.32;;;;;;;28.12;29.66;100279.44;5008958;28;20105;-64
2021/10/12 09:24:15;;;;;;;16.17;12.82;;;;;;;28.90;27.77;100273.81;5009524;28;20022;-65
2021/10/12 09:26:42;;;;;;;16.17;13.10;;;;;;;29.38;26.44;100268.41;5008630;28;20117;-64
2021/10/12 09:29:16;;;;;;;15.07;10.75;;;;;;;29.84;25.59;100256.78;5009279;28;20101;-63
2021/10/12 09:31:44;;;;;;;16.08;10.02;;;;;;;30.20;24.11;100264.34;5007433;28;20025;-65
2021/10/12 09:34:13;;;;;;;13.25;9.73;;;;;;;30.36;24.17;100255.06;5008200;28;20029;-64
2021/10/12 09:36:41;;;;;;;10.95;9.48;;;;;;;30.25;24.16;100247.78;5003279;28;20477;-64
2021/10/12 09:39:14;;;;;;;14.18;11.02;;;;;;;30.17;24.04;100249.09;4989211;28;20060;-64
2021/10/12 09:41:42;;;;;;;12.82;10.90;;;;;;;30.00;24.75;100259.44;4989581;28;20065;-64
2021/10/12 09:44:18;;;;;;;12.63;10.75;;;;;;;30.10;24.61;100236.53;4988987;28;20022;-64
2021/10/12 09:46:48;;;;;;;16.10;11.20;;;;;;;30.32;24.06;100238.16;4989069;28;20525;-63
2021/10/12 09:49:21;;;;;;;12.90;10.63;;;;;;;30.45;24.25;100234.09;4989300;28;20376;-64
2021/10/12 09:51:55;;;;;;;13.25;10.85;;;;;;;29.84;24.61;100242.94;5002595;28;20388;-64
2021/10/12 09:54:23;;;;;;;13.00;11.68;;;;;;;29.38;25.28;100238.00;5007119;28;20602;-64
2021/10/12 09:56:49;;;;;;;13.32;10.82;;;;;;;28.46;26.58;100248.88;5008563;28;20026;-65
2021/10/12 09:59:16;;;;;;;14.45;12.57;;;;;;;27.14;27.91;100237.53;5008619;28;20033;-65
2021/10/12 10:01:44;;;;;;;16.05;12.70;;;;;;;25.74;30.21;100251.47;5008428;28;20091;-64
2021/10/12 10:04:10;;;;;;;15.80;12.95;;;;;;;25.51;30.40;100247.78;5008908;28;20041;-64
2021/10/12 10:06:39;;;;;;;15.90;13.85;;;;;;;24.35;32.04;100254.38;5008744;28;20109;-64
2021/10/12 10:09:04;;;;;;;16.10;12.80;;;;;;;23.19;33.47;100249.44;5008696;28;20435;-64
2021/10/12 10:11:32;;;;;;;15.05;12.35;;;;;;;22.48;35.61;100253.19;5008443;28;20061;-63
2021/10/12 10:13:58;;;;;;;15.20;10.23;;;;;;;21.89;35.59;100263.28;5008761;28;20538;-64
2021/10/12 10:16:25;;;;;;;14.38;10.95;;;;;;;21.23;36.50;100262.28;4990199;28;20030;-64
2021/10/12 10:18:51;;;;;;;12.63;10.55;;;;;;;20.64;37.27;100263.88;4982559;28;20037;-64
2021/10/12 10:21:17;;;;;;;16.33;11.40;;;;;;;20.02;37.89;100255.63;4986807;28;20034;-64
2021/10/12 10:24:40;;;;;;;12.63;10.25;;;;;;;19.59;38.46;100240.34;4987533;28;20484;-64
2021/10/12 10:26:47;;;;;;;13.75;11.00;;;;;;;19.06;39.83;100248.09;4981850;28;20141;-63
2021/10/12 10:29:22;;;;;;;14.60;10.00;;;;;;;18.59;39.89;100232.22;4987874;28;20531;-64
2021/10/12 10:32:12;;;;;;;17.98;11.60;;;;;;;18.30;40.87;100244.91;4987576;28;20031;-63
2021/10/12 10:34:41;;;;;;;14.15;11.18;;;;;;;17.96;42.75;100248.97;4987619;28;20428;-63
2021/10/12 10:37:16;;;;;;;16.80;11.80;;;;;;;17.93;42.65;100248.50;4994762;28;20033;-64
2021/10/12 10:39:49;;;;;;;16.45;12.38;;;;;;;17.65;43.11;100244.66;5007167;28;20029;-64
2021/10/12 10:42:27;;;;;;;18.08;12.15;;;;;;;17.39;43.52;100238.72;5007086;28;20041;-64
2021/10/12 10:45:05;;;;;;;14.95;12.20;;;;;;;17.18;43.72;100230.38;5008316;28;20026;-64
2021/10/12 10:47:40;;;;;;;17.25;11.30;;;;;;;17.06;44.33;100238.06;5011102;28;20034;-64
2021/10/12 10:50:12;;;;;;;15.30;10.85;;;;;;;16.94;45.52;100231.38;5009019;28;20096;-63
2021/10/12 10:52:40;;;;;;;12.65;10.32;;;;;;;16.82;44.86;100238.22;5012124;28;20064;-64
2021/10/12 10:55:07;;;;;;;14.05;10.23;;;;;;;16.76;44.60;100229.94;5004388;28;20107;-63
2021/10/12 10:57:32;;;;;;;14.98;10.73;;;;;;;16.54;45.03;100209.06;4992754;28;20093;-64
2021/10/12 11:00:16;;;;;;;16.33;10.70;;;;;;;16.51;45.25;100222.94;4992721;28;20022;-63
2021/10/12 11:02:46;;;;;;;15.93;10.85;;;;;;;16.37;45.15;100204.66;4990937;28;20401;-63
2021/10/12 11:05:33;;;;;;;14.20;9.80;;;;;;;16.35;45.61;100221.09;4984953;28;20100;-66
2021/10/12 11:08:27;;;;;;;14.93;9.45;;;;;;;16.28;46.40;100222.81;4991004;28;20090;-64
2021/10/12 11:10:57;;;;;;;12.88;9.38;;;;;;;16.25;46.67;100214.19;4992276;28;20354;-64